createdAt,value
2023-03-10T00:01:26.963Z,54.88
2023-03-10T00:03:54.804Z,55.17
2023-03-10T00:06:23.949Z,80.30
2023-03-10T00:08:50.863Z,75.05
2023-03-10T00:11:18.152Z,53.70
2023-03-10T00:13:44.790Z,61.17
2023-03-10T00:16:24.435Z,75.82
2023-03-10T00:18:51.060Z,57.65
2023-03-10T00:21:24.540Z,50.35
2023-03-10T00:23:51.747Z,75.80
2023-03-10T00:26:20.522Z,58.70
2023-03-10T00:28:47.856Z,63.10
2023-03-10T00:31:17.738Z,70.20
2023-03-10T00:33:44.416Z,71.40
2023-03-10T00:36:22.312Z,57.53
2023-03-10T00:38:50.581Z,77.43
2023-03-10T00:41:23.122Z,70.68
2023-03-10T00:43:50.184Z,66.60
2023-03-10T00:46:17.177Z,52.65
2023-03-10T00:48:45.322Z,59.70
2023-03-10T00:51:12.330Z,58.33
2023-03-10T00:53:40.825Z,69.70
2023-03-10T00:56:16.295Z,65.80
2023-03-10T00:58:43.980Z,65.72
2023-03-10T01:01:15.664Z,66.73
2023-03-10T01:03:43.181Z,59.30
2023-03-10T01:06:10.419Z,74.30
2023-03-10T01:08:37.231Z,71.75
2023-03-10T01:11:03.936Z,79.78
2023-03-10T01:13:30.991Z,71.60
2023-03-10T01:15:57.585Z,82.90
2023-03-10T01:18:24.436Z,82.85
2023-03-10T01:20:51.099Z,72.03
2023-03-10T01:23:23.324Z,73.90
2023-03-10T01:25:50.274Z,113.00
2023-03-10T01:28:17.537Z,67.18
2023-03-10T01:30:44.946Z,82.25
2023-03-10T01:33:12.917Z,123.03
2023-03-10T01:35:39.899Z,114.28
2023-03-10T01:38:07.005Z,122.57
2023-03-10T01:40:33.992Z,92.10
2023-03-10T01:43:19.100Z,111.05
2023-03-10T01:45:45.676Z,93.15
2023-03-10T01:48:14.059Z,108.97
2023-03-10T01:50:41.878Z,101.97
2023-03-10T01:53:10.119Z,122.00
2023-03-10T01:55:42.103Z,100.35
2023-03-10T01:58:10.037Z,143.77
2023-03-10T02:00:36.880Z,104.32
2023-03-10T02:03:16.534Z,98.53
2023-03-10T02:05:54.692Z,103.95
2023-03-10T02:08:23.064Z,79.75
2023-03-10T02:10:51.015Z,93.68
2023-03-10T02:13:18.192Z,105.97
2023-03-10T02:15:46.535Z,69.30
2023-03-10T02:18:15.685Z,76.97
2023-03-10T02:21:07.896Z,89.43
2023-03-10T02:24:01.476Z,82.35
2023-03-10T02:27:24.851Z,81.00
2023-03-10T02:30:02.018Z,79.90
2023-03-10T02:32:32.822Z,80.63
2023-03-10T02:34:59.501Z,97.63
2023-03-10T02:37:28.972Z,98.03
2023-03-10T02:39:56.249Z,95.47
2023-03-10T02:42:25.256Z,90.83
2023-03-10T02:44:53.143Z,86.57
2023-03-10T02:47:20.470Z,76.63
2023-03-10T02:49:47.149Z,67.63
2023-03-10T02:52:38.179Z,110.57
2023-03-10T02:55:05.135Z,88.40
2023-03-10T02:57:31.724Z,115.57
2023-03-10T02:59:58.302Z,83.35
2023-03-10T03:02:24.872Z,105.47
2023-03-10T03:04:51.407Z,122.95
2023-03-10T03:07:18.004Z,101.97
2023-03-10T03:09:44.747Z,100.10
2023-03-10T03:12:11.264Z,128.43
2023-03-10T03:14:37.825Z,123.78
2023-03-10T03:17:04.443Z,143.23
2023-03-10T03:19:31.006Z,138.87
2023-03-10T03:21:57.651Z,157.40
2023-03-10T03:24:24.220Z,136.50
2023-03-10T03:26:50.821Z,152.45
2023-03-10T03:29:17.679Z,181.25
2023-03-10T03:31:44.292Z,159.13
2023-03-10T03:34:11.071Z,191.20
2023-03-10T03:36:38.064Z,136.98
2023-03-10T03:39:07.121Z,191.60
2023-03-10T03:41:34.286Z,202.43
2023-03-10T03:44:01.233Z,219.40
2023-03-10T03:46:28.062Z,205.38
2023-03-10T03:48:54.666Z,125.63
2023-03-10T03:51:21.218Z,182.60
2023-03-10T03:53:47.767Z,186.60
2023-03-10T03:56:14.459Z,181.07
2023-03-10T03:58:41.049Z,202.45
2023-03-10T04:01:07.716Z,218.15
2023-03-10T04:03:34.420Z,176.68
2023-03-10T04:06:02.173Z,248.65
2023-03-10T04:08:28.825Z,212.63
2023-03-10T04:10:56.815Z,211.85
2023-03-10T04:13:24.817Z,184.75
2023-03-10T04:16:00.648Z,249.70
2023-03-10T04:18:27.270Z,241.20
2023-03-10T04:20:53.844Z,213.03
2023-03-10T04:23:20.514Z,227.90
2023-03-10T04:25:47.029Z,208.00
2023-03-10T04:28:13.692Z,218.40
2023-03-10T04:30:45.177Z,250.05
2023-03-10T04:33:12.540Z,223.73
2023-03-10T04:35:44.031Z,217.18
2023-03-10T04:38:10.639Z,206.00
2023-03-10T04:40:37.428Z,251.15
2023-03-10T04:43:04.069Z,202.93
2023-03-10T04:45:31.009Z,193.47
2023-03-10T04:47:57.812Z,248.40
2023-03-10T04:50:24.350Z,226.32
2023-03-10T04:52:51.101Z,195.05
2023-03-10T04:55:17.811Z,285.80
2023-03-10T04:57:44.419Z,253.30
2023-03-10T05:00:12.838Z,185.05
2023-03-10T05:02:40.515Z,245.38
2023-03-10T05:05:07.662Z,215.20
2023-03-10T05:07:34.283Z,201.43
2023-03-10T05:10:00.837Z,269.57
2023-03-10T05:12:27.532Z,252.25
2023-03-10T05:14:54.145Z,212.38
2023-03-10T05:17:20.786Z,192.48
2023-03-10T05:19:47.323Z,231.05
2023-03-10T05:22:14.141Z,230.00
2023-03-10T05:24:40.792Z,159.98
2023-03-10T05:27:08.690Z,183.43
2023-03-10T05:29:35.353Z,286.30
2023-03-10T05:32:01.922Z,239.82
2023-03-10T05:34:28.430Z,174.63
2023-03-10T05:36:56.393Z,251.00
2023-03-10T05:39:23.151Z,208.80
2023-03-10T05:41:49.965Z,244.32
2023-03-10T05:44:16.490Z,271.92
2023-03-10T05:46:43.122Z,237.47
2023-03-10T05:49:09.795Z,246.23
2023-03-10T05:51:36.404Z,221.00
2023-03-10T05:54:05.267Z,209.27
2023-03-10T05:56:32.675Z,254.77
2023-03-10T05:58:59.253Z,162.67
2023-03-10T06:01:25.806Z,265.13
2023-03-10T06:03:52.433Z,207.07
2023-03-10T06:06:19.076Z,276.70
2023-03-10T06:08:45.958Z,191.25
2023-03-10T06:11:12.523Z,283.00
2023-03-10T06:13:39.124Z,177.75
2023-03-10T06:16:06.815Z,201.88
2023-03-10T06:18:34.282Z,218.15
2023-03-10T06:21:05.749Z,319.23
2023-03-10T06:23:32.268Z,262.93
2023-03-10T06:26:01.424Z,260.02
2023-03-10T06:28:32.985Z,244.80
2023-03-10T06:31:01.660Z,271.35
2023-03-10T06:33:29.439Z,148.82
2023-03-10T06:35:56.463Z,208.70
2023-03-10T06:38:23.589Z,178.65
2023-03-10T06:40:50.286Z,266.50
2023-03-10T06:43:16.950Z,174.15
2023-03-10T06:45:45.228Z,236.93
2023-03-10T06:48:12.922Z,292.63
2023-03-10T06:50:49.943Z,145.18
2023-03-10T06:53:19.642Z,111.95
2023-03-10T06:56:00.696Z,218.50
2023-03-10T06:58:28.724Z,156.13
2023-03-10T07:00:55.461Z,107.40
2023-03-10T07:03:22.202Z,207.65
2023-03-10T07:05:48.748Z,119.25
2023-03-10T07:08:15.393Z,85.22
2023-03-10T07:10:41.968Z,154.50
2023-03-10T07:13:09.460Z,80.43
2023-03-10T07:15:39.470Z,97.63
2023-03-10T07:18:06.374Z,166.88
2023-03-10T07:20:32.942Z,215.93
2023-03-10T07:22:59.454Z,221.18
2023-03-10T07:25:26.390Z,77.90
2023-03-10T07:27:53.144Z,81.00
2023-03-10T07:30:19.698Z,216.40
2023-03-10T07:32:46.300Z,105.72
2023-03-10T07:35:13.467Z,126.22
2023-03-10T07:37:40.750Z,143.53
2023-03-10T07:40:08.740Z,91.38
2023-03-10T07:42:35.443Z,83.80
2023-03-10T07:45:02.016Z,69.82
2023-03-10T07:47:28.548Z,56.00
2023-03-10T07:49:55.095Z,83.40
2023-03-10T07:52:21.740Z,46.53
2023-03-10T07:54:48.510Z,60.33
2023-03-10T07:57:15.915Z,94.00
2023-03-10T07:59:43.117Z,45.85
2023-03-10T08:02:13.048Z,41.57
2023-03-10T08:04:40.703Z,41.28
2023-03-10T08:07:08.113Z,34.50
2023-03-10T08:09:35.513Z,41.88
2023-03-10T08:12:03.378Z,29.80
2023-03-10T08:14:31.471Z,30.17
2023-03-10T08:16:58.784Z,27.85
2023-03-10T08:19:27.352Z,35.70
2023-03-10T08:22:02.205Z,23.05
2023-03-10T08:24:29.018Z,18.20
2023-03-10T08:26:55.717Z,26.17
2023-03-10T08:29:23.148Z,27.35
2023-03-10T08:31:50.157Z,21.00
2023-03-10T08:34:19.004Z,21.27
2023-03-10T08:36:45.634Z,21.95
2023-03-10T08:39:13.247Z,17.70
2023-03-10T08:41:49.826Z,17.83
2023-03-10T08:44:18.449Z,16.02
2023-03-10T08:46:47.041Z,14.93
2023-03-10T08:49:15.746Z,15.20
2023-03-10T08:51:42.954Z,19.73
2023-03-10T08:54:12.313Z,17.00
2023-03-10T08:56:39.449Z,18.48
2023-03-10T08:59:06.012Z,13.52
2023-03-10T09:01:35.712Z,12.48
2023-03-10T09:04:04.773Z,10.57
2023-03-10T09:06:31.982Z,13.05
2023-03-10T09:08:58.906Z,10.57
2023-03-10T09:11:28.801Z,11.80
2023-03-10T09:13:55.830Z,11.65
2023-03-10T09:16:22.639Z,9.97
2023-03-10T09:18:49.323Z,8.30
2023-03-10T09:21:18.181Z,11.55
2023-03-10T09:23:47.673Z,10.23
2023-03-10T09:26:15.507Z,12.02
2023-03-10T09:28:42.853Z,9.97
2023-03-10T09:31:16.179Z,11.60
2023-03-10T09:33:45.508Z,10.02
2023-03-10T09:36:12.692Z,12.05
2023-03-10T09:38:39.399Z,11.00
2023-03-10T09:41:25.037Z,8.37
2023-03-10T09:44:22.604Z,11.95
2023-03-10T09:47:03.534Z,9.75
2023-03-10T09:49:43.335Z,10.32
2023-03-10T09:52:34.231Z,9.23
2023-03-10T09:55:06.493Z,7.70
2023-03-10T09:57:34.963Z,12.13
2023-03-10T10:00:08.835Z,8.68
2023-03-10T10:02:47.138Z,8.98
2023-03-10T10:05:21.644Z,7.82
2023-03-10T10:07:55.975Z,9.67
2023-03-10T10:10:32.723Z,6.57
2023-03-10T10:13:11.152Z,7.70
2023-03-10T10:15:41.736Z,7.55
2023-03-10T10:18:24.971Z,8.93
2023-03-10T10:21:24.041Z,8.73
2023-03-10T10:23:53.238Z,9.10
2023-03-10T10:26:22.339Z,7.97
2023-03-10T10:28:54.642Z,7.65
2023-03-10T10:31:25.011Z,9.30
2023-03-10T10:33:54.677Z,7.23
2023-03-10T10:36:24.617Z,9.00
2023-03-10T10:38:54.433Z,11.07
2023-03-10T10:41:25.806Z,6.72
2023-03-10T10:43:54.761Z,6.10
2023-03-10T10:46:27.789Z,3.77
2023-03-10T10:49:02.365Z,5.20
2023-03-10T10:51:32.324Z,5.18
2023-03-10T10:54:01.105Z,4.15
2023-03-10T10:56:28.923Z,7.03
2023-03-10T10:59:04.006Z,4.50
2023-03-10T11:01:49.913Z,5.15
2023-03-10T11:04:17.643Z,5.00
2023-03-10T11:06:45.206Z,6.95
2023-03-10T11:09:17.368Z,5.97
2023-03-10T11:11:53.398Z,3.50
2023-03-10T11:15:01.919Z,3.25
2023-03-10T11:17:35.173Z,6.10
2023-03-10T11:20:17.158Z,3.58
2023-03-10T11:22:49.567Z,2.83
2023-03-10T11:25:22.381Z,4.00
2023-03-10T11:28:16.455Z,5.18
2023-03-10T11:31:09.984Z,3.55
2023-03-10T11:33:39.680Z,3.92
2023-03-10T11:36:43.257Z,3.65
2023-03-10T11:39:22.329Z,3.33
2023-03-10T11:41:52.604Z,3.30
2023-03-10T11:44:25.062Z,3.67
2023-03-10T11:47:11.881Z,6.10
2023-03-10T11:49:40.462Z,7.00
2023-03-10T11:52:14.786Z,3.23
2023-03-10T11:54:49.493Z,3.40
2023-03-10T11:57:21.510Z,4.20
2023-03-10T11:59:57.062Z,5.75
2023-03-10T12:02:48.306Z,4.30
2023-03-10T12:05:22.358Z,3.53
2023-03-10T12:07:53.243Z,2.33
2023-03-10T12:10:21.987Z,4.15
2023-03-10T12:12:50.793Z,4.03
2023-03-10T12:15:23.984Z,4.82
2023-03-10T12:17:52.821Z,5.23
2023-03-10T12:20:19.393Z,6.07
2023-03-10T12:22:47.717Z,4.82
2023-03-10T12:25:29.385Z,5.85
2023-03-10T12:28:11.008Z,5.03
2023-03-10T12:30:45.738Z,4.67
2023-03-10T12:33:39.494Z,3.95
2023-03-10T12:36:27.440Z,4.05
2023-03-10T12:39:01.511Z,3.50
2023-03-10T12:41:28.048Z,4.22
2023-03-10T12:44:19.397Z,3.90
2023-03-10T12:46:47.493Z,2.70
2023-03-10T12:49:38.995Z,2.67
2023-03-10T12:52:17.385Z,3.15
2023-03-10T12:55:02.855Z,6.53
2023-03-10T12:57:32.969Z,3.70
2023-03-10T13:00:27.578Z,3.35
2023-03-10T13:03:04.146Z,2.75
2023-03-10T13:05:33.809Z,2.63
2023-03-10T13:08:11.342Z,3.97
2023-03-10T13:10:38.512Z,4.57
2023-03-10T13:13:08.973Z,2.83
2023-03-10T13:15:36.139Z,3.05
2023-03-10T13:18:16.072Z,3.42
2023-03-10T13:20:42.700Z,2.33
2023-03-10T13:23:21.436Z,3.03
2023-03-10T13:25:59.503Z,2.83
2023-03-10T13:28:29.252Z,4.22
2023-03-10T13:31:29.536Z,3.80
2023-03-10T13:33:57.361Z,5.25
2023-03-10T13:36:35.875Z,5.93
2023-03-10T13:39:04.205Z,6.57
2023-03-10T13:41:37.543Z,5.45
2023-03-10T13:44:04.543Z,6.07
2023-03-10T13:46:33.272Z,7.93
2023-03-10T13:49:06.393Z,5.40
2023-03-10T13:51:35.546Z,5.70
2023-03-10T13:54:22.792Z,9.23
2023-03-10T13:56:52.569Z,8.10
2023-03-10T13:59:25.924Z,8.55
2023-03-10T14:01:55.734Z,8.07
2023-03-10T14:04:45.571Z,21.98
2023-03-10T14:07:13.963Z,19.10
2023-03-10T14:09:41.460Z,9.32
2023-03-10T14:12:10.442Z,7.53
2023-03-10T14:14:41.696Z,6.80
2023-03-10T14:17:35.237Z,8.77
2023-03-10T14:20:01.804Z,9.82
2023-03-10T14:22:29.525Z,8.50
2023-03-10T14:24:57.931Z,6.97
2023-03-10T14:27:25.213Z,6.77
2023-03-10T14:29:57.997Z,5.97
2023-03-10T14:32:25.165Z,5.72
2023-03-10T14:34:51.900Z,6.22
2023-03-10T14:37:18.950Z,3.78
2023-03-10T14:39:45.798Z,3.30
2023-03-10T14:42:20.219Z,2.92
2023-03-10T14:44:48.616Z,2.95
2023-03-10T14:47:15.955Z,1.52
2023-03-10T14:49:42.864Z,3.58
2023-03-10T14:52:15.710Z,2.20
2023-03-10T14:54:43.237Z,1.52
2023-03-10T14:57:11.979Z,3.53
2023-03-10T14:59:39.565Z,4.10
2023-03-10T15:02:17.513Z,2.65
2023-03-10T15:04:44.172Z,2.43
2023-03-10T15:07:11.476Z,2.55
2023-03-10T15:09:38.041Z,3.40
2023-03-10T15:12:04.938Z,1.45
2023-03-10T15:14:31.500Z,3.60
2023-03-10T15:16:58.306Z,5.17
2023-03-10T15:19:27.153Z,4.07
2023-03-10T15:21:54.306Z,3.78
2023-03-10T15:24:21.175Z,3.70
2023-03-10T15:26:50.530Z,3.10
2023-03-10T15:29:19.675Z,4.00
2023-03-10T15:31:47.021Z,5.82
2023-03-10T15:34:14.015Z,2.33
2023-03-10T15:36:40.910Z,3.08
2023-03-10T15:39:07.737Z,4.38
2023-03-10T15:41:38.954Z,5.13
2023-03-10T15:44:06.776Z,7.13
2023-03-10T15:46:33.527Z,6.60
2023-03-10T15:49:03.109Z,6.53
2023-03-10T15:51:30.128Z,5.85
2023-03-10T15:53:56.835Z,6.53
2023-03-10T15:56:26.073Z,6.47
2023-03-10T15:58:52.854Z,4.28
2023-03-10T16:01:22.575Z,4.45
2023-03-10T16:03:49.175Z,5.28
2023-03-10T16:06:16.037Z,7.27
2023-03-10T16:08:43.344Z,4.72
2023-03-10T16:11:19.360Z,5.30
2023-03-10T16:13:46.806Z,4.93
2023-03-10T16:16:14.074Z,4.95
2023-03-10T16:18:40.931Z,5.87
2023-03-10T16:21:07.538Z,5.18
2023-03-10T16:23:34.263Z,7.18
2023-03-10T16:26:08.612Z,6.25
2023-03-10T16:28:36.882Z,5.05
2023-03-10T16:31:04.670Z,6.13
2023-03-10T16:33:32.563Z,6.47
2023-03-10T16:36:02.967Z,6.93
2023-03-10T16:38:30.286Z,4.85
2023-03-10T16:40:57.997Z,5.38
2023-03-10T16:43:28.780Z,7.33
2023-03-10T16:46:14.711Z,4.78
2023-03-10T16:48:44.497Z,4.47
2023-03-10T16:51:29.046Z,5.72
2023-03-10T16:53:58.606Z,7.25
2023-03-10T16:56:26.533Z,5.30
2023-03-10T16:58:53.458Z,6.35
2023-03-10T17:01:20.425Z,6.05
2023-03-10T17:03:48.795Z,5.03
2023-03-10T17:06:18.667Z,5.45
2023-03-10T17:08:45.382Z,8.03
2023-03-10T17:11:24.642Z,22.10
2023-03-10T17:13:53.550Z,30.17
2023-03-10T17:16:23.547Z,29.58
2023-03-10T17:18:51.211Z,27.45
2023-03-10T17:21:21.528Z,25.23
2023-03-10T17:23:48.888Z,22.77
2023-03-10T17:26:16.577Z,23.10
2023-03-10T17:28:46.095Z,19.27
2023-03-10T17:31:15.345Z,21.10
2023-03-10T17:33:43.641Z,18.87
2023-03-10T17:36:12.891Z,19.60
2023-03-10T17:38:40.829Z,22.30
2023-03-10T17:41:10.209Z,17.00
2023-03-10T17:43:37.571Z,20.65
2023-03-10T17:46:08.214Z,18.57
2023-03-10T17:48:36.158Z,18.50
2023-03-10T17:51:03.934Z,18.55
2023-03-10T17:53:31.423Z,16.85
2023-03-10T17:56:07.416Z,17.48
2023-03-10T17:58:34.603Z,18.43
2023-03-10T18:01:28.726Z,18.45
2023-03-10T18:03:57.729Z,19.83
2023-03-10T18:06:31.936Z,22.90
2023-03-10T18:09:00.549Z,26.00
2023-03-10T18:11:28.802Z,26.53
2023-03-10T18:13:55.585Z,26.27
2023-03-10T18:16:30.565Z,24.75
2023-03-10T18:18:58.465Z,27.23
2023-03-10T18:21:26.298Z,24.92
2023-03-10T18:23:53.519Z,21.87
2023-03-10T18:26:23.206Z,23.90
2023-03-10T18:28:50.202Z,25.00
2023-03-10T18:31:37.489Z,26.20
2023-03-10T18:34:04.430Z,30.35
2023-03-10T18:36:33.134Z,28.80
2023-03-10T18:39:00.197Z,20.10
2023-03-10T18:41:29.465Z,20.85
2023-03-10T18:43:56.611Z,24.50
2023-03-10T18:46:23.485Z,21.02
2023-03-10T18:48:55.913Z,20.90
2023-03-10T18:51:26.633Z,20.90
2023-03-10T18:53:54.304Z,22.52
2023-03-10T18:56:21.183Z,22.23
2023-03-10T18:58:47.860Z,20.77
2023-03-10T19:01:15.321Z,19.13
2023-03-10T19:03:42.671Z,18.60
2023-03-10T19:06:10.208Z,20.35
2023-03-10T19:08:44.035Z,20.45
2023-03-10T19:11:12.419Z,23.20
2023-03-10T19:13:40.657Z,28.07
2023-03-10T19:16:08.652Z,29.15
2023-03-10T19:18:36.150Z,24.95
2023-03-10T19:21:03.698Z,20.05
2023-03-10T19:23:30.393Z,27.95
2023-03-10T19:25:57.239Z,26.47
2023-03-10T19:28:23.833Z,41.53
2023-03-10T19:30:50.439Z,32.13
2023-03-10T19:33:17.038Z,35.78
2023-03-10T19:35:43.776Z,33.03
2023-03-10T19:38:10.442Z,30.83
2023-03-10T19:40:37.298Z,26.55
2023-03-10T19:43:07.171Z,32.47
2023-03-10T19:45:33.766Z,21.77
2023-03-10T19:48:00.557Z,24.85
2023-03-10T19:50:28.257Z,24.30
2023-03-10T19:52:56.114Z,33.72
2023-03-10T19:55:25.235Z,30.92
2023-03-10T19:57:55.898Z,28.30
2023-03-10T20:00:27.751Z,31.67
2023-03-10T20:02:55.112Z,31.80
2023-03-10T20:05:22.599Z,40.38
2023-03-10T20:07:49.185Z,37.65
2023-03-10T20:10:17.275Z,34.80
2023-03-10T20:12:44.435Z,35.40
2023-03-10T20:15:11.433Z,43.00
2023-03-10T20:17:38.379Z,55.38
2023-03-10T20:20:10.395Z,52.95
2023-03-10T20:22:39.509Z,55.47
2023-03-10T20:25:08.217Z,62.55
2023-03-10T20:27:34.954Z,64.33
2023-03-10T20:30:01.847Z,68.65
2023-03-10T20:32:28.624Z,53.38
2023-03-10T20:34:55.258Z,59.67
2023-03-10T20:37:21.787Z,60.10
2023-03-10T20:39:48.535Z,41.63
2023-03-10T20:42:15.184Z,43.10
2023-03-10T20:44:41.871Z,42.30
2023-03-10T20:47:08.972Z,37.63
2023-03-10T20:49:35.556Z,54.60
2023-03-10T20:52:02.974Z,48.27
2023-03-10T20:54:29.721Z,100.97
2023-03-10T20:56:56.609Z,37.78
2023-03-10T20:59:23.440Z,33.88
2023-03-10T21:01:50.625Z,34.53
2023-03-10T21:04:19.698Z,33.27
2023-03-10T21:06:47.139Z,35.85
2023-03-10T21:09:14.848Z,49.17
2023-03-10T21:11:42.136Z,42.20
2023-03-10T21:14:08.993Z,37.33
2023-03-10T21:16:41.621Z,38.50
2023-03-10T21:19:09.703Z,38.47
2023-03-10T21:21:36.548Z,42.30
2023-03-10T21:24:06.488Z,40.85
2023-03-10T21:26:33.272Z,36.72
2023-03-10T21:29:00.559Z,38.97
2023-03-10T21:31:27.249Z,37.58
2023-03-10T21:33:53.975Z,39.58
2023-03-10T21:36:23.172Z,35.97
2023-03-10T21:38:51.054Z,41.08
2023-03-10T21:41:20.380Z,35.43
2023-03-10T21:43:46.934Z,36.78
2023-03-10T21:46:13.808Z,48.05
2023-03-10T21:48:40.874Z,37.33
2023-03-10T21:51:09.737Z,41.38
2023-03-10T21:53:39.309Z,32.20
2023-03-10T21:56:06.807Z,31.70
2023-03-10T21:58:35.070Z,33.10
2023-03-10T22:01:03.133Z,26.83
2023-03-10T22:03:29.741Z,25.08
2023-03-10T22:05:56.637Z,26.97
2023-03-10T22:08:23.493Z,21.17
2023-03-10T22:10:50.166Z,25.40
2023-03-10T22:13:17.281Z,27.77
2023-03-10T22:15:44.912Z,22.58
2023-03-10T22:18:14.146Z,23.20
2023-03-10T22:20:40.961Z,20.90
2023-03-10T22:23:08.011Z,25.20
2023-03-10T22:25:34.919Z,17.75
2023-03-10T22:28:02.180Z,19.50
2023-03-10T22:30:29.966Z,14.87
2023-03-10T22:32:56.761Z,23.15
2023-03-10T22:35:24.003Z,17.08
2023-03-10T22:37:51.729Z,15.38
2023-03-10T22:40:20.911Z,15.93
2023-03-10T22:42:48.788Z,12.97
2023-03-10T22:45:23.101Z,13.27
2023-03-10T22:47:52.584Z,13.88
2023-03-10T22:50:32.551Z,15.25
2023-03-10T22:53:00.929Z,12.02
2023-03-10T22:55:34.831Z,12.97
2023-03-10T22:58:06.802Z,18.00
2023-03-10T23:00:35.338Z,13.18
2023-03-10T23:03:04.822Z,13.52
2023-03-10T23:05:32.121Z,12.15
2023-03-10T23:07:59.278Z,10.77
2023-03-10T23:10:29.656Z,15.30
2023-03-10T23:13:01.696Z,12.25
2023-03-10T23:15:33.368Z,11.43
2023-03-10T23:18:00.368Z,11.35
2023-03-10T23:20:30.017Z,91.17
2023-03-10T23:22:58.841Z,23.35
2023-03-10T23:25:29.074Z,12.32
2023-03-10T23:27:56.988Z,9.35
2023-03-10T23:30:24.967Z,79.80
2023-03-10T23:32:52.741Z,18.53
2023-03-10T23:35:23.037Z,11.73
2023-03-10T23:37:50.588Z,13.57
2023-03-10T23:40:19.334Z,25.50
2023-03-10T23:42:46.825Z,153.40
2023-03-10T23:45:16.884Z,23.13
2023-03-10T23:47:44.190Z,10.40
2023-03-10T23:50:16.815Z,11.43
2023-03-10T23:52:44.192Z,10.45
2023-03-10T23:55:32.033Z,7.85
2023-03-10T23:57:59.309Z,11.20
